createdAt,value
2023-03-07T00:02:00.549Z,10.77
2023-03-07T00:04:27.906Z,11.13
2023-03-07T00:06:57.008Z,10.87
2023-03-07T00:09:24.257Z,11.13
2023-03-07T00:11:51.471Z,10.33
2023-03-07T00:14:18.701Z,11.30
2023-03-07T00:16:45.934Z,10.73
2023-03-07T00:19:13.435Z,10.23
2023-03-07T00:21:40.728Z,11.60
2023-03-07T00:24:08.169Z,10.43
2023-03-07T00:26:39.474Z,10.50
2023-03-07T00:29:08.152Z,10.60
2023-03-07T00:31:35.631Z,11.40
2023-03-07T00:34:03.088Z,11.10
2023-03-07T00:36:30.462Z,11.07
2023-03-07T00:38:58.855Z,10.77
2023-03-07T00:41:27.270Z,10.63
2023-03-07T00:43:55.164Z,11.23
2023-03-07T00:46:23.764Z,11.27
2023-03-07T00:48:51.188Z,10.63
2023-03-07T00:51:19.793Z,10.53
2023-03-07T00:53:47.224Z,10.90
2023-03-07T00:56:22.073Z,9.87
2023-03-07T00:58:50.256Z,10.10
2023-03-07T01:01:18.846Z,10.27
2023-03-07T01:03:49.763Z,9.93
2023-03-07T01:06:18.807Z,10.93
2023-03-07T01:08:46.711Z,10.83
2023-03-07T01:11:15.845Z,10.73
2023-03-07T01:13:43.377Z,10.47
2023-03-07T01:16:13.696Z,11.17
2023-03-07T01:18:42.746Z,10.07
2023-03-07T01:21:14.934Z,10.73
2023-03-07T01:23:42.726Z,10.57
2023-03-07T01:26:15.689Z,11.00
2023-03-07T01:28:43.418Z,11.60
2023-03-07T01:31:11.303Z,11.37
2023-03-07T01:33:40.526Z,12.00
2023-03-07T01:36:16.322Z,10.83
2023-03-07T01:38:43.803Z,11.27
2023-03-07T01:41:11.990Z,11.93
2023-03-07T01:43:40.181Z,11.23
2023-03-07T01:46:17.964Z,11.30
2023-03-07T01:48:51.513Z,11.57
2023-03-07T01:51:19.787Z,11.63
2023-03-07T01:53:49.669Z,11.10
2023-03-07T01:56:16.936Z,11.17
2023-03-07T01:58:44.316Z,10.97
2023-03-07T02:01:13.044Z,11.40
2023-03-07T02:03:55.868Z,12.60
2023-03-07T02:06:23.402Z,11.70
2023-03-07T02:08:51.771Z,11.63
2023-03-07T02:11:19.439Z,11.93
2023-03-07T02:13:46.702Z,11.37
2023-03-07T02:16:14.489Z,11.37
2023-03-07T02:18:46.055Z,12.33
2023-03-07T02:21:19.278Z,11.77
2023-03-07T02:24:05.511Z,10.80
2023-03-07T02:26:32.849Z,11.60
2023-03-07T02:29:01.357Z,11.17
2023-03-07T02:31:29.952Z,11.50
2023-03-07T02:33:57.298Z,11.50
2023-03-07T02:36:26.773Z,10.73
2023-03-07T02:39:15.089Z,10.87
2023-03-07T02:41:43.499Z,12.10
2023-03-07T02:44:22.849Z,11.27
2023-03-07T02:46:50.233Z,11.73
2023-03-07T02:49:18.509Z,10.80
2023-03-07T02:51:46.147Z,11.90
2023-03-07T02:54:13.643Z,10.97
2023-03-07T02:56:41.082Z,11.23
2023-03-07T02:59:08.997Z,10.73
2023-03-07T03:01:36.738Z,10.97
2023-03-07T03:04:04.251Z,10.77
2023-03-07T03:06:31.459Z,11.47
2023-03-07T03:08:59.057Z,10.97
2023-03-07T03:11:27.353Z,11.33
2023-03-07T03:13:54.773Z,11.47
2023-03-07T03:16:22.491Z,11.67
2023-03-07T03:18:49.929Z,11.77
2023-03-07T03:21:17.265Z,11.43
2023-03-07T03:23:44.637Z,11.40
2023-03-07T03:26:11.947Z,10.47
2023-03-07T03:28:40.396Z,11.53
2023-03-07T03:31:09.112Z,11.03
2023-03-07T03:33:37.040Z,10.63
2023-03-07T03:36:11.847Z,10.43
2023-03-07T03:38:39.464Z,10.60
2023-03-07T03:41:09.457Z,10.63
2023-03-07T03:43:37.916Z,10.23
2023-03-07T03:46:06.788Z,10.90
2023-03-07T03:48:34.252Z,10.97
2023-03-07T03:51:06.176Z,10.63
2023-03-07T03:53:34.393Z,11.27
2023-03-07T03:56:02.517Z,10.00
2023-03-07T03:58:31.342Z,10.27
2023-03-07T04:00:58.861Z,10.53
2023-03-07T04:03:26.367Z,10.03
2023-03-07T04:05:54.572Z,10.03
2023-03-07T04:08:22.190Z,9.73
2023-03-07T04:10:49.593Z,11.03
2023-03-07T04:13:16.882Z,10.00
2023-03-07T04:15:44.204Z,9.50
2023-03-07T04:18:11.877Z,9.87
2023-03-07T04:20:39.771Z,10.07
2023-03-07T04:23:07.442Z,10.03
2023-03-07T04:25:34.819Z,9.60
2023-03-07T04:28:02.121Z,9.73
2023-03-07T04:30:29.495Z,10.10
2023-03-07T04:32:56.778Z,9.60
2023-03-07T04:35:24.503Z,10.17
2023-03-07T04:37:51.857Z,9.93
2023-03-07T04:40:19.434Z,10.60
2023-03-07T04:42:46.929Z,10.33
2023-03-07T04:45:14.492Z,9.80
2023-03-07T04:47:42.085Z,10.33
2023-03-07T04:50:10.123Z,10.23
2023-03-07T04:52:39.303Z,10.73
2023-03-07T04:55:07.362Z,11.17
2023-03-07T04:57:35.413Z,10.87
2023-03-07T05:00:02.938Z,10.77
2023-03-07T05:02:30.571Z,10.33
2023-03-07T05:04:58.897Z,11.00
2023-03-07T05:07:26.507Z,11.03
2023-03-07T05:09:53.858Z,11.20
2023-03-07T05:12:21.407Z,11.17
2023-03-07T05:14:48.791Z,10.90
2023-03-07T05:17:16.426Z,11.07
2023-03-07T05:19:43.771Z,11.20
2023-03-07T05:22:11.429Z,10.43
2023-03-07T05:24:39.015Z,10.37
2023-03-07T05:27:06.896Z,10.83
2023-03-07T05:29:34.143Z,10.87
2023-03-07T05:32:02.652Z,10.23
2023-03-07T05:34:30.061Z,11.20
2023-03-07T05:36:58.383Z,10.07
2023-03-07T05:39:27.881Z,10.37
2023-03-07T05:41:55.440Z,11.43
2023-03-07T05:44:23.103Z,9.97
2023-03-07T05:46:50.509Z,10.43
2023-03-07T05:49:18.229Z,10.23
2023-03-07T05:51:45.503Z,10.57
2023-03-07T05:54:12.996Z,10.40
2023-03-07T05:56:40.368Z,9.37
2023-03-07T05:59:07.954Z,25.30
2023-03-07T06:01:36.210Z,10.60
2023-03-07T06:04:03.700Z,10.30
2023-03-07T06:06:31.013Z,10.43
2023-03-07T06:08:58.377Z,10.57
2023-03-07T06:11:25.783Z,9.90
2023-03-07T06:13:53.256Z,8.53
2023-03-07T06:16:20.962Z,9.20
2023-03-07T06:18:48.505Z,9.53
2023-03-07T06:21:16.796Z,8.60
2023-03-07T06:23:49.007Z,8.07
2023-03-07T06:26:20.387Z,7.80
2023-03-07T06:28:51.303Z,7.60
2023-03-07T06:31:19.590Z,7.90
2023-03-07T06:33:47.745Z,6.50
2023-03-07T06:36:17.236Z,8.23
2023-03-07T06:38:48.403Z,7.97
2023-03-07T06:41:15.940Z,7.73
2023-03-07T06:43:43.449Z,7.50
2023-03-07T06:46:11.027Z,7.83
2023-03-07T06:48:41.228Z,7.17
2023-03-07T06:51:13.303Z,7.37
2023-03-07T06:53:42.845Z,6.63
2023-03-07T06:56:10.345Z,7.70
2023-03-07T06:58:38.974Z,8.07
2023-03-07T07:01:07.583Z,8.43
2023-03-07T07:03:36.514Z,7.70
2023-03-07T07:06:03.954Z,8.03
2023-03-07T07:08:31.761Z,7.67
2023-03-07T07:10:59.603Z,7.47
2023-03-07T07:13:27.666Z,7.60
2023-03-07T07:15:55.340Z,7.13
2023-03-07T07:18:24.681Z,7.27
2023-03-07T07:20:56.415Z,7.27
2023-03-07T07:23:27.131Z,7.27
2023-03-07T07:25:54.805Z,6.97
2023-03-07T07:28:22.429Z,7.03
2023-03-07T07:30:49.909Z,7.10
2023-03-07T07:33:17.351Z,6.93
2023-03-07T07:35:48.268Z,7.40
2023-03-07T07:38:16.000Z,6.53
2023-03-07T07:40:43.516Z,6.77
2023-03-07T07:43:15.372Z,7.13
2023-03-07T07:46:06.150Z,6.40
2023-03-07T07:48:34.212Z,6.60
2023-03-07T07:51:03.403Z,6.07
2023-03-07T07:53:31.433Z,5.50
2023-03-07T07:55:59.205Z,5.43
2023-03-07T07:58:26.547Z,6.40
2023-03-07T08:00:53.998Z,6.17
2023-03-07T08:03:21.721Z,5.37
2023-03-07T08:05:49.884Z,6.47
2023-03-07T08:08:17.695Z,5.47
2023-03-07T08:10:46.538Z,5.50
2023-03-07T08:13:14.628Z,6.07
2023-03-07T08:15:42.358Z,5.50
2023-03-07T08:18:13.508Z,5.90
2023-03-07T08:20:41.407Z,5.43
2023-03-07T08:23:09.036Z,4.90
2023-03-07T08:25:36.359Z,5.40
2023-03-07T08:28:05.478Z,5.60
2023-03-07T08:30:34.305Z,4.97
2023-03-07T08:33:02.092Z,5.20
2023-03-07T08:35:29.555Z,5.03
2023-03-07T08:37:59.655Z,5.20
2023-03-07T08:40:27.700Z,5.07
2023-03-07T08:42:57.640Z,5.10
2023-03-07T08:45:25.300Z,4.90
2023-03-07T08:47:53.640Z,6.07
2023-03-07T08:50:21.793Z,5.20
2023-03-07T08:52:49.111Z,4.60
2023-03-07T08:55:16.908Z,4.00
2023-03-07T08:57:47.439Z,4.40
2023-03-07T09:00:15.335Z,4.07
2023-03-07T09:02:42.673Z,4.43
2023-03-07T09:05:29.311Z,4.17
2023-03-07T09:07:56.871Z,4.57
2023-03-07T09:10:25.052Z,4.13
2023-03-07T09:12:52.286Z,4.20
2023-03-07T09:15:19.616Z,4.13
2023-03-07T09:17:46.854Z,4.73
2023-03-07T09:20:17.803Z,4.03
2023-03-07T09:22:46.708Z,4.33
2023-03-07T09:25:14.640Z,4.47
2023-03-07T09:27:42.432Z,4.13
2023-03-07T09:30:10.029Z,4.47
2023-03-07T09:32:37.326Z,4.13
2023-03-07T09:35:04.821Z,4.47
2023-03-07T09:37:32.056Z,3.70
2023-03-07T09:39:59.361Z,3.43
2023-03-07T09:42:26.617Z,3.80
2023-03-07T09:45:13.235Z,4.70
2023-03-07T09:48:07.493Z,3.63
2023-03-07T09:50:44.602Z,4.57
2023-03-07T09:53:37.506Z,4.40
2023-03-07T09:56:09.274Z,4.90
2023-03-07T09:58:39.618Z,4.20
2023-03-07T10:01:08.379Z,4.60
2023-03-07T10:03:52.977Z,4.97
2023-03-07T10:06:26.873Z,5.50
2023-03-07T10:08:56.489Z,5.10
2023-03-07T10:11:37.420Z,4.37
2023-03-07T10:14:17.243Z,5.17
2023-03-07T10:16:50.690Z,5.17
2023-03-07T10:19:27.432Z,5.70
2023-03-07T10:22:14.040Z,4.73
2023-03-07T10:24:44.693Z,4.17
2023-03-07T10:27:13.171Z,4.70
2023-03-07T10:29:43.326Z,4.50
2023-03-07T10:32:20.099Z,4.73
2023-03-07T10:34:50.243Z,4.73
2023-03-07T10:37:19.600Z,4.80
2023-03-07T10:39:54.458Z,4.97
2023-03-07T10:42:25.154Z,5.97
2023-03-07T10:44:53.490Z,7.77
2023-03-07T10:47:22.442Z,6.33
2023-03-07T10:49:50.935Z,5.77
2023-03-07T10:52:22.266Z,5.80
2023-03-07T10:54:49.705Z,5.97
2023-03-07T10:57:20.437Z,4.40
2023-03-07T10:59:49.674Z,5.30
2023-03-07T11:02:21.990Z,5.67
2023-03-07T11:04:50.054Z,6.57
2023-03-07T11:07:36.991Z,5.30
2023-03-07T11:10:23.841Z,4.80
2023-03-07T11:12:51.500Z,4.57
2023-03-07T11:15:24.862Z,4.77
2023-03-07T11:17:52.782Z,5.43
2023-03-07T11:20:23.080Z,5.33
2023-03-07T11:22:51.208Z,4.67
2023-03-07T11:25:24.013Z,4.13
2023-03-07T11:27:51.737Z,5.17
2023-03-07T11:30:31.246Z,5.10
2023-03-07T11:33:33.080Z,4.60
2023-03-07T11:36:16.496Z,4.77
2023-03-07T11:38:55.313Z,4.30
2023-03-07T11:41:35.778Z,4.20
2023-03-07T11:44:15.780Z,4.93
2023-03-07T11:47:05.074Z,4.07
2023-03-07T11:49:35.729Z,4.87
2023-03-07T11:52:08.975Z,4.63
2023-03-07T11:54:56.072Z,4.27
2023-03-07T11:57:30.689Z,4.87
2023-03-07T12:00:28.092Z,4.60
2023-03-07T12:03:01.899Z,4.70
2023-03-07T12:05:41.136Z,4.80
2023-03-07T12:08:28.629Z,4.57
2023-03-07T12:11:15.557Z,4.90
2023-03-07T12:13:54.644Z,4.63
2023-03-07T12:16:31.210Z,4.57
2023-03-07T12:18:59.238Z,4.20
2023-03-07T12:21:38.495Z,4.40
2023-03-07T12:24:20.899Z,4.63
2023-03-07T12:26:51.392Z,4.97
2023-03-07T12:29:25.053Z,5.13
2023-03-07T12:31:55.609Z,4.37
2023-03-07T12:34:26.377Z,4.70
2023-03-07T12:37:06.805Z,4.30
2023-03-07T12:39:40.310Z,4.53
2023-03-07T12:42:25.911Z,4.63
2023-03-07T12:44:53.096Z,4.53
2023-03-07T12:47:24.248Z,5.40
2023-03-07T12:50:02.366Z,5.03
2023-03-07T12:52:44.637Z,3.73
2023-03-07T12:55:18.663Z,4.00
2023-03-07T12:57:51.577Z,4.10
2023-03-07T13:00:21.255Z,4.83
2023-03-07T13:02:53.805Z,4.47
2023-03-07T13:05:24.949Z,4.70
2023-03-07T13:07:52.419Z,4.67
2023-03-07T13:10:23.885Z,5.07
2023-03-07T13:12:54.976Z,4.37
2023-03-07T13:15:25.322Z,4.23
2023-03-07T13:17:52.618Z,5.00
2023-03-07T13:20:29.285Z,4.80
2023-03-07T13:22:58.511Z,4.93
2023-03-07T13:25:36.086Z,4.43
2023-03-07T13:28:04.248Z,4.50
2023-03-07T13:30:32.402Z,4.40
2023-03-07T13:33:01.036Z,4.40
2023-03-07T13:35:28.254Z,4.40
2023-03-07T13:37:58.770Z,4.83
2023-03-07T13:40:26.655Z,4.13
2023-03-07T13:42:54.083Z,4.30
2023-03-07T13:45:39.676Z,4.57
2023-03-07T13:48:15.557Z,4.40
2023-03-07T13:50:42.912Z,4.77
2023-03-07T13:53:19.534Z,4.50
2023-03-07T13:55:48.048Z,4.37
2023-03-07T13:58:28.882Z,4.13
2023-03-07T14:00:58.511Z,3.57
2023-03-07T14:03:29.134Z,4.13
2023-03-07T14:05:57.543Z,4.77
2023-03-07T14:08:28.752Z,4.00
2023-03-07T14:10:56.922Z,3.97
2023-03-07T14:13:24.262Z,3.73
2023-03-07T14:15:51.441Z,4.70
2023-03-07T14:18:18.775Z,5.10
2023-03-07T14:20:46.614Z,3.97
2023-03-07T14:23:17.348Z,4.90
2023-03-07T14:25:50.770Z,4.47
2023-03-07T14:28:19.738Z,5.03
2023-03-07T14:31:01.257Z,5.13
2023-03-07T14:33:35.898Z,4.50
2023-03-07T14:36:05.468Z,4.80
2023-03-07T14:38:32.950Z,6.10
2023-03-07T14:41:00.105Z,5.07
2023-03-07T14:43:49.131Z,4.47
2023-03-07T14:46:22.184Z,4.17
2023-03-07T14:48:56.889Z,4.50
2023-03-07T14:51:26.173Z,4.33
2023-03-07T14:53:53.486Z,5.13
2023-03-07T14:56:27.254Z,4.60
2023-03-07T14:59:01.789Z,5.37
2023-03-07T15:01:31.817Z,5.10
2023-03-07T15:03:59.560Z,4.20
2023-03-07T15:06:28.536Z,3.70
2023-03-07T15:09:01.187Z,4.13
2023-03-07T15:11:40.365Z,4.00
2023-03-07T15:14:26.644Z,3.73
2023-03-07T15:16:58.045Z,4.40
2023-03-07T15:19:25.715Z,4.50
2023-03-07T15:21:55.091Z,3.77
2023-03-07T15:24:28.858Z,3.77
2023-03-07T15:26:56.336Z,3.77
2023-03-07T15:29:24.950Z,3.57
2023-03-07T15:31:59.954Z,3.30
2023-03-07T15:34:30.477Z,3.17
2023-03-07T15:37:17.642Z,3.27
2023-03-07T15:39:54.737Z,4.00
2023-03-07T15:42:22.180Z,3.73
2023-03-07T15:44:59.782Z,3.73
2023-03-07T15:47:31.492Z,3.53
2023-03-07T15:50:04.118Z,3.87
2023-03-07T15:52:36.254Z,3.47
2023-03-07T15:55:23.691Z,3.70
2023-03-07T15:57:59.118Z,3.43
2023-03-07T16:00:26.505Z,3.80
2023-03-07T16:02:53.978Z,3.43
2023-03-07T16:05:24.064Z,4.10
2023-03-07T16:07:52.295Z,3.53
2023-03-07T16:10:19.725Z,3.80
2023-03-07T16:12:47.545Z,2.93
2023-03-07T16:15:15.933Z,3.63
2023-03-07T16:17:43.732Z,3.33
2023-03-07T16:20:17.253Z,3.70
2023-03-07T16:22:44.655Z,3.93
2023-03-07T16:25:12.107Z,4.90
2023-03-07T16:27:40.770Z,3.77
2023-03-07T16:30:27.461Z,3.90
2023-03-07T16:32:55.598Z,3.50
2023-03-07T16:35:27.033Z,4.20
2023-03-07T16:37:54.916Z,3.93
2023-03-07T16:40:22.891Z,4.17
2023-03-07T16:42:50.853Z,4.83
2023-03-07T16:45:18.427Z,4.67
2023-03-07T16:47:46.591Z,3.83
2023-03-07T16:50:15.023Z,3.97
2023-03-07T16:52:43.346Z,3.93
2023-03-07T16:55:15.373Z,3.80
2023-03-07T16:57:44.297Z,3.77
2023-03-07T17:00:19.332Z,3.20
2023-03-07T17:02:47.009Z,4.33
2023-03-07T17:05:17.051Z,4.47
2023-03-07T17:07:44.312Z,4.77
2023-03-07T17:10:12.432Z,4.80
2023-03-07T17:12:40.294Z,4.17
2023-03-07T17:15:08.101Z,4.67
2023-03-07T17:17:36.571Z,4.63
2023-03-07T17:20:08.196Z,4.60
2023-03-07T17:22:35.860Z,4.70
2023-03-07T17:25:05.038Z,9.10
2023-03-07T17:27:33.349Z,9.77
2023-03-07T17:30:00.975Z,4.20
2023-03-07T17:32:28.304Z,3.80
2023-03-07T17:34:55.638Z,4.00
2023-03-07T17:37:22.845Z,3.80
2023-03-07T17:39:50.041Z,4.23
2023-03-07T17:42:19.551Z,3.63
2023-03-07T17:44:46.733Z,3.67
2023-03-07T17:47:14.236Z,4.03
2023-03-07T17:49:41.709Z,4.47
2023-03-07T17:52:09.142Z,3.63
2023-03-07T17:54:36.400Z,4.17
2023-03-07T17:57:03.940Z,4.10
2023-03-07T17:59:32.771Z,4.10
2023-03-07T18:02:00.265Z,4.10
2023-03-07T18:04:30.975Z,4.00
2023-03-07T18:06:59.129Z,3.20
2023-03-07T18:09:26.527Z,3.10
2023-03-07T18:11:54.465Z,3.07
2023-03-07T18:14:21.724Z,30.73
2023-03-07T18:16:49.130Z,7.70
2023-03-07T18:19:26.320Z,3.50
2023-03-07T18:21:55.254Z,2.93
2023-03-07T18:24:26.122Z,2.87
2023-03-07T18:26:54.160Z,2.23
2023-03-07T18:29:21.758Z,2.30
2023-03-07T18:31:48.949Z,2.27
2023-03-07T18:34:16.636Z,2.50
2023-03-07T18:36:44.133Z,2.87
2023-03-07T18:39:11.763Z,2.43
2023-03-07T18:41:39.095Z,2.50
2023-03-07T18:44:06.354Z,2.73
2023-03-07T18:46:33.573Z,3.10
2023-03-07T18:49:01.219Z,2.90
2023-03-07T18:51:28.684Z,3.10
2023-03-07T18:53:58.365Z,3.13
2023-03-07T18:56:27.086Z,3.10
2023-03-07T18:58:55.982Z,2.90
2023-03-07T19:01:27.746Z,3.17
2023-03-07T19:03:55.698Z,3.17
2023-03-07T19:06:24.091Z,2.80
2023-03-07T19:08:51.793Z,2.50
2023-03-07T19:11:19.627Z,2.60
2023-03-07T19:13:47.066Z,2.70
2023-03-07T19:16:19.232Z,3.23
2023-03-07T19:18:47.021Z,3.20
2023-03-07T19:21:15.452Z,3.30
2023-03-07T19:23:44.446Z,2.83
2023-03-07T19:26:13.105Z,2.93
2023-03-07T19:28:40.495Z,3.10
2023-03-07T19:31:14.175Z,3.30
2023-03-07T19:33:41.613Z,3.30
2023-03-07T19:36:10.028Z,2.90
2023-03-07T19:38:37.682Z,3.20
2023-03-07T19:41:06.092Z,4.00
2023-03-07T19:43:33.434Z,3.20
2023-03-07T19:46:04.706Z,3.20
2023-03-07T19:48:31.930Z,3.60
2023-03-07T19:50:59.190Z,3.40
2023-03-07T19:53:26.489Z,3.40
2023-03-07T19:55:53.819Z,4.03
2023-03-07T19:58:21.016Z,3.33
2023-03-07T20:00:48.239Z,3.73
2023-03-07T20:03:16.817Z,3.43
2023-03-07T20:05:48.500Z,3.37
2023-03-07T20:08:16.622Z,3.17
2023-03-07T20:10:44.740Z,3.53
2023-03-07T20:13:14.028Z,3.83
2023-03-07T20:15:42.662Z,3.53
2023-03-07T20:18:11.155Z,3.60
2023-03-07T20:20:38.408Z,4.20
2023-03-07T20:23:05.835Z,3.83
2023-03-07T20:25:33.134Z,4.07
2023-03-07T20:28:00.755Z,3.60
2023-03-07T20:30:28.012Z,4.17
2023-03-07T20:32:56.652Z,3.77
2023-03-07T20:35:23.958Z,4.07
2023-03-07T20:37:51.387Z,4.17
2023-03-07T20:40:18.886Z,3.60
2023-03-07T20:42:46.140Z,3.30
2023-03-07T20:45:13.375Z,3.30
2023-03-07T20:47:40.762Z,2.70
2023-03-07T20:50:08.215Z,2.93
2023-03-07T20:52:36.502Z,3.23
2023-03-07T20:55:04.966Z,3.07
2023-03-07T20:57:32.177Z,3.23
2023-03-07T21:00:00.159Z,3.03
2023-03-07T21:02:27.743Z,3.07
2023-03-07T21:04:55.031Z,3.00
2023-03-07T21:07:22.311Z,2.60
2023-03-07T21:09:50.924Z,3.03
2023-03-07T21:12:18.319Z,5.10
2023-03-07T21:14:45.511Z,13.53
2023-03-07T21:17:13.817Z,3.63
2023-03-07T21:19:41.017Z,3.70
2023-03-07T21:22:08.252Z,3.50
2023-03-07T21:24:35.472Z,3.70
2023-03-07T21:27:02.743Z,3.73
2023-03-07T21:29:29.945Z,3.60
2023-03-07T21:31:57.889Z,3.90
2023-03-07T21:34:25.946Z,4.00
2023-03-07T21:36:56.060Z,3.87
2023-03-07T21:39:26.686Z,3.70
2023-03-07T21:41:53.881Z,4.23
2023-03-07T21:44:21.083Z,3.47
2023-03-07T21:46:48.306Z,3.70
2023-03-07T21:49:16.782Z,3.90
2023-03-07T21:51:45.449Z,3.57
2023-03-07T21:54:13.427Z,3.80
2023-03-07T21:56:41.443Z,4.00
2023-03-07T21:59:08.634Z,3.40
2023-03-07T22:01:39.229Z,3.60
2023-03-07T22:04:06.771Z,3.40
2023-03-07T22:06:43.032Z,3.33
2023-03-07T22:09:10.610Z,3.80
2023-03-07T22:11:51.087Z,3.73
2023-03-07T22:14:18.703Z,3.50
2023-03-07T22:16:45.925Z,3.87
2023-03-07T22:19:15.713Z,4.27
2023-03-07T22:21:43.322Z,3.93
2023-03-07T22:24:12.294Z,4.60
2023-03-07T22:26:41.667Z,4.80
2023-03-07T22:29:09.787Z,5.30
2023-03-07T22:31:39.809Z,5.17
2023-03-07T22:34:07.339Z,5.47
2023-03-07T22:36:37.850Z,5.80
2023-03-07T22:39:07.243Z,5.20
2023-03-07T22:41:34.969Z,5.83
2023-03-07T22:44:04.657Z,5.13
2023-03-07T22:46:35.867Z,5.43
2023-03-07T22:49:03.377Z,5.00
2023-03-07T22:51:31.193Z,5.03
2023-03-07T22:53:58.888Z,5.33
2023-03-07T22:56:30.175Z,5.20
2023-03-07T22:58:57.818Z,5.00
2023-03-07T23:01:28.801Z,5.83
2023-03-07T23:04:00.131Z,5.20
2023-03-07T23:06:31.626Z,5.43
2023-03-07T23:09:02.068Z,5.13
2023-03-07T23:11:30.533Z,4.50
2023-03-07T23:14:01.603Z,4.37
2023-03-07T23:16:37.443Z,3.93
2023-03-07T23:19:05.561Z,3.23
2023-03-07T23:21:33.820Z,2.80
2023-03-07T23:24:02.450Z,2.40
2023-03-07T23:26:31.544Z,2.43
2023-03-07T23:28:59.112Z,2.47
2023-03-07T23:31:31.307Z,2.40
2023-03-07T23:33:59.687Z,2.20
2023-03-07T23:36:29.763Z,2.57
2023-03-07T23:38:58.139Z,2.23
2023-03-07T23:41:26.364Z,2.40
2023-03-07T23:43:54.470Z,2.17
2023-03-07T23:46:22.225Z,2.20
2023-03-07T23:48:49.516Z,2.30
2023-03-07T23:51:17.149Z,2.10
2023-03-07T23:53:44.386Z,2.40
2023-03-07T23:56:12.650Z,2.57
2023-03-07T23:58:39.998Z,2.60
